createdAt,value
2022-10-01T00:02:11.627Z,13.48
2022-10-01T00:05:11.577Z,13.54
2022-10-01T00:08:08.582Z,13.57
2022-10-01T00:11:12.192Z,13.54
2022-10-01T00:14:10.284Z,13.54
2022-10-01T00:17:07.868Z,13.60
2022-10-01T00:20:14.068Z,13.71
2022-10-01T00:23:12.428Z,13.56
2022-10-01T00:26:18.298Z,13.84
2022-10-01T00:29:15.680Z,13.90
2022-10-01T00:32:13.298Z,13.88
2022-10-01T00:35:10.480Z,13.80
2022-10-01T00:38:07.801Z,13.74
2022-10-01T00:41:04.891Z,13.64
2022-10-01T00:44:04.005Z,13.91
2022-10-01T00:47:17.440Z,14.16
2022-10-01T00:50:33.267Z,13.93
2022-10-01T00:53:30.722Z,14.07
2022-10-01T00:56:29.058Z,14.22
2022-10-01T00:59:26.195Z,13.98
2022-10-01T01:02:23.565Z,13.73
2022-10-01T01:05:21.219Z,13.79
2022-10-01T01:08:18.757Z,13.98
2022-10-01T01:11:22.731Z,14.01
2022-10-01T01:14:24.971Z,13.88
2022-10-01T01:17:38.684Z,13.56
2022-10-01T01:20:54.216Z,13.70
2022-10-01T01:24:00.927Z,13.85
2022-10-01T01:27:13.893Z,13.90
2022-10-01T01:30:15.505Z,13.52
2022-10-01T01:33:17.736Z,13.07
2022-10-01T01:36:19.025Z,13.22
2022-10-01T01:39:15.787Z,13.02
2022-10-01T01:42:27.967Z,12.96
2022-10-01T01:45:28.763Z,13.05
2022-10-01T01:48:25.665Z,12.99
2022-10-01T01:51:36.467Z,12.72
2022-10-01T01:54:35.832Z,12.67
2022-10-01T01:57:33.626Z,12.61
2022-10-01T02:00:30.652Z,12.56
2022-10-01T02:03:29.219Z,12.44
2022-10-01T02:06:39.032Z,12.50
2022-10-01T02:09:42.113Z,12.56
2022-10-01T02:12:46.064Z,12.43
2022-10-01T02:15:49.155Z,12.36
2022-10-01T02:18:58.061Z,12.35
2022-10-01T02:21:56.354Z,12.28
2022-10-01T02:24:57.668Z,12.08
2022-10-01T02:27:59.250Z,11.95
2022-10-01T02:30:56.968Z,11.92
2022-10-01T02:33:55.266Z,11.83
2022-10-01T02:36:52.702Z,11.82
2022-10-01T02:39:50.164Z,11.81
2022-10-01T02:42:50.163Z,11.70
2022-10-01T02:45:49.442Z,11.79
2022-10-01T02:48:47.095Z,11.62
2022-10-01T02:51:45.804Z,11.58
2022-10-01T02:54:49.092Z,11.51
2022-10-01T02:57:46.294Z,11.53
2022-10-01T03:00:43.910Z,11.49
2022-10-01T03:03:42.075Z,11.44
2022-10-01T03:06:38.914Z,11.49
2022-10-01T03:09:36.858Z,11.48
2022-10-01T03:12:34.504Z,11.40
2022-10-01T03:15:32.059Z,11.37
2022-10-01T03:18:28.943Z,11.33
2022-10-01T03:21:25.626Z,11.37
2022-10-01T03:24:22.916Z,11.37
2022-10-01T03:27:20.661Z,11.38
2022-10-01T03:30:17.957Z,11.29
2022-10-01T03:33:14.959Z,11.33
2022-10-01T03:36:11.942Z,11.39
2022-10-01T03:39:09.176Z,11.43
2022-10-01T03:42:07.174Z,11.44
2022-10-01T03:45:04.190Z,11.57
2022-10-01T03:48:01.933Z,11.29
2022-10-01T03:50:59.319Z,11.14
2022-10-01T03:53:57.838Z,11.04
2022-10-01T03:56:55.043Z,11.06
2022-10-01T03:59:51.665Z,11.08
2022-10-01T04:02:48.977Z,11.13
2022-10-01T04:05:45.988Z,11.06
2022-10-01T04:08:42.923Z,11.02
2022-10-01T04:11:39.973Z,11.20
2022-10-01T04:14:36.820Z,11.36
2022-10-01T04:17:33.931Z,11.22
2022-10-01T04:20:31.017Z,11.18
2022-10-01T04:23:28.185Z,11.19
2022-10-01T04:26:25.843Z,11.22
2022-10-01T04:29:22.831Z,11.28
2022-10-01T04:32:21.851Z,11.74
2022-10-01T04:35:19.194Z,11.90
2022-10-01T04:38:16.884Z,12.04
2022-10-01T04:41:15.097Z,12.14
2022-10-01T04:44:12.073Z,11.83
2022-10-01T04:47:09.399Z,11.61
2022-10-01T04:50:07.075Z,11.55
2022-10-01T04:53:03.604Z,11.31
2022-10-01T04:56:01.481Z,11.33
2022-10-01T04:58:58.869Z,11.41
2022-10-01T05:01:57.000Z,11.51
2022-10-01T05:04:54.521Z,11.51
2022-10-01T05:07:52.128Z,11.40
2022-10-01T05:10:49.013Z,11.63
2022-10-01T05:13:46.097Z,11.75
2022-10-01T05:16:43.082Z,11.73
2022-10-01T05:19:39.902Z,11.67
2022-10-01T05:22:36.746Z,11.83
2022-10-01T05:25:33.918Z,11.75
2022-10-01T05:28:31.665Z,11.83
2022-10-01T05:31:29.058Z,11.58
2022-10-01T05:34:26.863Z,11.71
2022-10-01T05:37:41.778Z,11.52
2022-10-01T05:40:38.742Z,11.34
2022-10-01T05:43:36.340Z,11.45
2022-10-01T05:46:34.260Z,11.54
2022-10-01T05:49:31.375Z,11.53
2022-10-01T05:52:29.240Z,11.64
2022-10-01T05:55:26.489Z,11.89
2022-10-01T05:58:24.117Z,11.97
2022-10-01T06:01:21.571Z,12.14
2022-10-01T06:04:18.880Z,12.40
2022-10-01T06:07:16.078Z,12.56
2022-10-01T06:10:13.641Z,12.48
2022-10-01T06:13:13.451Z,12.15
2022-10-01T06:16:14.598Z,12.27
2022-10-01T06:19:12.120Z,12.25
2022-10-01T06:22:09.059Z,12.24
2022-10-01T06:25:06.903Z,12.21
2022-10-01T06:28:05.986Z,12.53
2022-10-01T06:31:03.073Z,12.78
2022-10-01T06:33:59.922Z,12.59
2022-10-01T06:36:57.268Z,12.81
2022-10-01T06:39:55.327Z,12.85
2022-10-01T06:42:56.750Z,12.72
2022-10-01T06:45:54.296Z,12.81
2022-10-01T06:48:52.174Z,12.95
2022-10-01T06:52:07.369Z,12.83
2022-10-01T06:55:05.764Z,12.84
2022-10-01T06:58:06.784Z,12.96
2022-10-01T07:01:04.193Z,13.07
2022-10-01T07:04:01.220Z,13.03
2022-10-01T07:06:58.594Z,13.16
2022-10-01T07:09:56.103Z,13.18
2022-10-01T07:12:52.998Z,13.22
2022-10-01T07:15:50.190Z,13.25
2022-10-01T07:18:47.369Z,13.18
2022-10-01T07:21:46.810Z,13.16
2022-10-01T07:24:44.021Z,13.30
2022-10-01T07:27:41.364Z,13.23
2022-10-01T07:30:40.450Z,13.23
2022-10-01T07:33:39.082Z,13.55
2022-10-01T07:36:36.189Z,13.60
2022-10-01T07:39:33.225Z,13.59
2022-10-01T07:42:31.267Z,13.72
2022-10-01T07:45:28.994Z,13.81
2022-10-01T07:48:27.486Z,13.89
2022-10-01T07:51:26.704Z,13.79
2022-10-01T07:54:24.419Z,13.68
2022-10-01T07:57:22.096Z,13.67
2022-10-01T08:00:19.567Z,13.77
2022-10-01T08:03:16.895Z,13.90
2022-10-01T08:06:14.004Z,14.00
2022-10-01T08:09:11.177Z,14.02
2022-10-01T08:12:08.137Z,14.02
2022-10-01T08:15:10.278Z,14.11
2022-10-01T08:18:06.953Z,14.22
2022-10-01T08:21:04.255Z,14.26
2022-10-01T08:24:02.231Z,14.27
2022-10-01T08:26:59.204Z,14.45
2022-10-01T08:29:56.066Z,14.56
2022-10-01T08:32:57.336Z,14.53
2022-10-01T08:35:53.847Z,14.53
2022-10-01T08:38:50.921Z,14.48
2022-10-01T08:41:57.351Z,14.47
2022-10-01T08:44:54.227Z,14.48
2022-10-01T08:47:55.490Z,14.60
2022-10-01T08:51:00.197Z,14.50
2022-10-01T08:54:09.269Z,14.50
2022-10-01T08:57:10.107Z,14.46
2022-10-01T09:00:11.977Z,14.64
2022-10-01T09:03:12.060Z,14.80
2022-10-01T09:06:18.038Z,14.89
2022-10-01T09:09:20.914Z,14.94
2022-10-01T09:12:32.159Z,15.11
2022-10-01T09:16:10.637Z,15.18
2022-10-01T09:19:35.169Z,15.31
2022-10-01T09:22:34.856Z,15.34
2022-10-01T09:25:31.975Z,15.28
2022-10-01T09:28:31.416Z,15.38
2022-10-01T09:31:36.857Z,15.50
2022-10-01T09:34:37.504Z,15.51
2022-10-01T09:37:45.026Z,15.40
2022-10-01T09:40:53.484Z,15.50
2022-10-01T09:43:51.002Z,15.39
2022-10-01T09:46:48.107Z,15.31
2022-10-01T09:49:46.226Z,15.48
2022-10-01T09:52:43.148Z,15.58
2022-10-01T09:55:40.919Z,15.64
2022-10-01T09:58:38.362Z,15.74
2022-10-01T10:01:48.352Z,15.79
2022-10-01T10:04:46.027Z,15.85
2022-10-01T10:08:00.327Z,15.78
2022-10-01T10:11:20.848Z,15.95
2022-10-01T10:14:24.642Z,16.15
2022-10-01T10:17:22.351Z,16.20
2022-10-01T10:20:29.865Z,16.05
2022-10-01T10:23:29.381Z,16.08
2022-10-01T10:26:34.961Z,16.10
2022-10-01T10:29:34.136Z,16.08
2022-10-01T10:32:31.847Z,15.96
2022-10-01T10:35:29.108Z,16.35
2022-10-01T10:38:26.781Z,16.55
2022-10-01T10:41:26.903Z,16.77
2022-10-01T10:44:25.299Z,16.88
2022-10-01T10:47:22.960Z,16.92
2022-10-01T10:50:43.292Z,16.78
2022-10-01T10:53:44.029Z,16.77
2022-10-01T10:56:41.305Z,16.85
2022-10-01T10:59:39.184Z,16.84
2022-10-01T11:02:36.345Z,16.88
2022-10-01T11:05:34.489Z,16.86
2022-10-01T11:08:31.202Z,17.11
2022-10-01T11:11:49.967Z,17.46
2022-10-01T11:15:09.244Z,17.60
2022-10-01T11:18:27.431Z,17.03
2022-10-01T11:21:55.656Z,17.23
2022-10-01T11:25:24.994Z,17.24
2022-10-01T11:28:37.863Z,17.30
2022-10-01T11:31:38.281Z,17.11
2022-10-01T11:35:14.191Z,17.03
2022-10-01T11:38:38.155Z,17.06
2022-10-01T11:41:39.251Z,16.73
2022-10-01T11:44:42.431Z,16.48
2022-10-01T11:47:43.804Z,16.25
2022-10-01T11:50:42.804Z,16.05
2022-10-01T11:53:44.549Z,15.93
2022-10-01T11:57:03.855Z,15.91
2022-10-01T12:00:11.429Z,16.08
2022-10-01T12:03:16.552Z,15.97
2022-10-01T12:06:14.936Z,15.91
2022-10-01T12:09:15.190Z,15.85
2022-10-01T12:12:17.707Z,15.87
2022-10-01T12:15:21.123Z,15.77
2022-10-01T12:18:22.509Z,15.23
2022-10-01T12:21:39.613Z,14.69
2022-10-01T12:24:41.133Z,14.64
2022-10-01T12:27:56.338Z,14.59
2022-10-01T12:31:08.508Z,14.82
2022-10-01T12:34:28.131Z,14.86
2022-10-01T12:37:41.975Z,14.65
2022-10-01T12:40:57.662Z,14.78
2022-10-01T12:44:02.843Z,14.82
2022-10-01T12:47:20.533Z,14.70
2022-10-01T12:50:32.690Z,14.55
2022-10-01T12:53:36.407Z,14.73
2022-10-01T12:56:41.899Z,14.96
2022-10-01T12:59:51.762Z,14.83
2022-10-01T13:02:55.356Z,15.06
2022-10-01T13:06:05.670Z,15.21
2022-10-01T13:09:05.652Z,15.37
2022-10-01T13:12:42.231Z,15.29
2022-10-01T13:15:49.651Z,15.28
2022-10-01T13:19:05.773Z,15.18
2022-10-01T13:22:51.283Z,15.22
2022-10-01T13:25:56.856Z,15.58
2022-10-01T13:29:27.328Z,15.85
2022-10-01T13:32:33.222Z,15.91
2022-10-01T13:35:39.539Z,15.92
2022-10-01T13:38:43.980Z,16.05
2022-10-01T13:41:41.321Z,16.04
2022-10-01T13:44:40.755Z,16.05
2022-10-01T13:47:39.959Z,16.07
2022-10-01T13:50:41.946Z,16.24
2022-10-01T13:53:50.038Z,16.31
2022-10-01T13:56:47.445Z,16.32
2022-10-01T13:59:44.713Z,16.42
2022-10-01T14:02:45.219Z,16.64
2022-10-01T14:05:42.769Z,16.61
2022-10-01T14:09:17.867Z,16.60
2022-10-01T14:12:38.637Z,16.50
2022-10-01T14:16:02.751Z,16.62
2022-10-01T14:19:00.412Z,16.72
2022-10-01T14:22:15.575Z,16.66
2022-10-01T14:25:25.464Z,16.60
2022-10-01T14:28:44.371Z,16.70
2022-10-01T14:32:12.272Z,16.67
2022-10-01T14:35:29.800Z,16.99
2022-10-01T14:38:27.599Z,16.92
2022-10-01T14:41:24.558Z,16.78
2022-10-01T14:44:28.141Z,16.58
2022-10-01T14:47:26.035Z,16.58
2022-10-01T14:50:23.210Z,16.56
2022-10-01T14:53:22.095Z,16.61
2022-10-01T14:56:19.662Z,16.68
2022-10-01T14:59:21.432Z,16.72
2022-10-01T15:02:20.315Z,16.75
2022-10-01T15:05:28.277Z,16.71
2022-10-01T15:08:45.311Z,16.55
2022-10-01T15:11:44.643Z,16.43
2022-10-01T15:14:42.847Z,16.54
2022-10-01T15:17:41.625Z,16.66
2022-10-01T15:20:38.058Z,16.67
2022-10-01T15:23:38.327Z,16.71
2022-10-01T15:26:35.467Z,16.89
2022-10-01T15:29:32.445Z,16.96
2022-10-01T15:32:29.234Z,16.89
2022-10-01T15:35:26.148Z,16.88
2022-10-01T15:38:23.667Z,16.59
2022-10-01T15:41:32.766Z,16.50
2022-10-01T15:44:38.530Z,16.48
2022-10-01T15:47:40.460Z,16.42
2022-10-01T15:50:38.169Z,16.02
2022-10-01T15:53:35.503Z,15.82
2022-10-01T15:56:32.728Z,15.87
2022-10-01T15:59:30.492Z,15.87
2022-10-01T16:02:29.009Z,15.87
2022-10-01T16:05:33.334Z,15.80
2022-10-01T16:08:34.477Z,15.87
2022-10-01T16:11:32.327Z,15.82
2022-10-01T16:14:47.412Z,15.72
2022-10-01T16:17:56.580Z,15.88
2022-10-01T16:20:56.472Z,15.80
2022-10-01T16:23:54.240Z,15.79
2022-10-01T16:26:53.515Z,15.69
2022-10-01T16:30:02.682Z,15.68
2022-10-01T16:33:04.657Z,15.80
2022-10-01T16:36:09.614Z,15.80
2022-10-01T16:39:06.685Z,15.77
2022-10-01T16:42:22.671Z,15.94
2022-10-01T16:45:24.869Z,15.94
2022-10-01T16:48:22.723Z,15.71
2022-10-01T16:51:19.668Z,15.78
2022-10-01T16:54:20.097Z,15.90
2022-10-01T16:57:17.880Z,16.08
2022-10-01T17:00:16.428Z,16.22
2022-10-01T17:03:18.345Z,16.22
2022-10-01T17:06:15.589Z,16.25
2022-10-01T17:09:12.323Z,16.10
2022-10-01T17:12:09.415Z,16.15
2022-10-01T17:15:07.238Z,16.07
2022-10-01T17:18:04.427Z,16.07
2022-10-01T17:21:04.763Z,16.06
2022-10-01T17:24:03.031Z,15.88
2022-10-01T17:27:00.744Z,15.76
2022-10-01T17:29:57.861Z,15.84
2022-10-01T17:32:59.900Z,15.74
2022-10-01T17:35:57.533Z,15.62
2022-10-01T17:38:54.627Z,15.61
2022-10-01T17:41:51.807Z,15.65
2022-10-01T17:44:48.639Z,15.57
2022-10-01T17:47:45.984Z,15.42
2022-10-01T17:50:44.700Z,15.43
2022-10-01T17:53:42.832Z,15.41
2022-10-01T17:56:41.990Z,15.23
2022-10-01T17:59:39.395Z,15.21
2022-10-01T18:02:42.234Z,15.28
2022-10-01T18:05:42.226Z,15.27
2022-10-01T18:08:54.735Z,15.21
2022-10-01T18:11:52.613Z,15.08
2022-10-01T18:14:49.889Z,15.10
2022-10-01T18:17:51.350Z,15.07
2022-10-01T18:20:48.505Z,15.05
2022-10-01T18:23:45.657Z,15.02
2022-10-01T18:26:42.719Z,15.04
2022-10-01T18:29:39.507Z,15.15
2022-10-01T18:32:41.143Z,15.15
2022-10-01T18:35:38.952Z,15.03
2022-10-01T18:38:36.789Z,14.98
2022-10-01T18:41:36.711Z,15.07
2022-10-01T18:44:33.599Z,15.12
2022-10-01T18:47:39.577Z,15.17
2022-10-01T18:50:48.722Z,15.17
2022-10-01T18:54:08.227Z,15.03
2022-10-01T18:57:11.390Z,15.06
2022-10-01T19:00:24.352Z,15.04
2022-10-01T19:03:41.709Z,15.07
2022-10-01T19:07:12.807Z,14.99
2022-10-01T19:10:12.946Z,14.85
2022-10-01T19:13:32.258Z,14.77
2022-10-01T19:16:42.312Z,14.79
2022-10-01T19:19:55.178Z,14.88
2022-10-01T19:23:01.061Z,14.84
2022-10-01T19:26:55.068Z,14.86
2022-10-01T19:30:05.907Z,14.75
2022-10-01T19:33:04.278Z,14.70
2022-10-01T19:36:01.676Z,14.72
2022-10-01T19:39:01.111Z,14.63
2022-10-01T19:42:01.287Z,14.52
2022-10-01T19:45:17.192Z,14.68
2022-10-01T19:48:40.266Z,14.59
2022-10-01T19:51:58.249Z,14.63
2022-10-01T19:54:56.444Z,14.74
2022-10-01T19:57:53.489Z,14.77
2022-10-01T20:00:57.504Z,14.74
2022-10-01T20:04:00.039Z,14.68
2022-10-01T20:07:03.491Z,14.73
2022-10-01T20:10:36.958Z,14.64
2022-10-01T20:13:56.744Z,14.57
2022-10-01T20:16:53.375Z,14.54
2022-10-01T20:20:16.757Z,14.60
2022-10-01T20:23:44.616Z,14.69
2022-10-01T20:27:02.917Z,14.52
2022-10-01T20:30:33.283Z,14.63
2022-10-01T20:33:37.092Z,14.80
2022-10-01T20:36:46.835Z,14.99
2022-10-01T20:39:49.414Z,15.09
2022-10-01T20:42:48.824Z,15.09
2022-10-01T20:45:47.562Z,15.12
2022-10-01T20:48:47.445Z,15.05
2022-10-01T20:51:54.154Z,15.08
2022-10-01T20:54:52.154Z,14.91
2022-10-01T20:57:51.292Z,14.94
2022-10-01T21:00:53.117Z,15.02
2022-10-01T21:04:23.574Z,14.88
2022-10-01T21:08:05.298Z,14.95
2022-10-01T21:11:14.650Z,14.90
2022-10-01T21:14:23.428Z,14.95
2022-10-01T21:17:38.807Z,14.96
2022-10-01T21:20:46.545Z,14.91
2022-10-01T21:23:49.817Z,14.84
2022-10-01T21:27:35.366Z,14.72
2022-10-01T21:30:42.618Z,14.72
2022-10-01T21:34:20.897Z,14.84
2022-10-01T21:37:45.751Z,14.87
2022-10-01T21:41:38.164Z,14.76
2022-10-01T21:45:09.731Z,14.75
2022-10-01T21:48:16.299Z,14.70
2022-10-01T21:51:29.251Z,14.67
2022-10-01T21:54:34.429Z,14.69
2022-10-01T21:57:48.260Z,14.62
2022-10-01T22:01:26.937Z,14.66
2022-10-01T22:04:35.681Z,14.73
2022-10-01T22:07:35.947Z,14.82
2022-10-01T22:10:36.952Z,14.85
2022-10-01T22:13:35.220Z,14.89
2022-10-01T22:16:53.004Z,14.86
2022-10-01T22:19:52.450Z,14.78
2022-10-01T22:22:50.764Z,14.71
2022-10-01T22:25:58.607Z,14.74
2022-10-01T22:28:55.568Z,14.71
2022-10-01T22:31:54.723Z,14.78
2022-10-01T22:35:03.604Z,14.83
2022-10-01T22:38:24.144Z,14.94
2022-10-01T22:41:27.909Z,15.04
2022-10-01T22:44:25.600Z,15.02
2022-10-01T22:47:38.103Z,15.19
2022-10-01T22:50:45.348Z,14.86
2022-10-01T22:53:50.235Z,14.97
2022-10-01T22:57:04.972Z,14.97
2022-10-01T23:00:08.523Z,14.78
2022-10-01T23:03:35.443Z,14.71
2022-10-01T23:06:58.019Z,14.71
2022-10-01T23:10:01.506Z,14.57
2022-10-01T23:13:05.449Z,14.74
2022-10-01T23:16:08.752Z,14.66
2022-10-01T23:19:20.942Z,14.53
2022-10-01T23:22:29.941Z,14.50
2022-10-01T23:25:44.213Z,14.51
2022-10-01T23:28:56.812Z,14.60
2022-10-01T23:32:26.999Z,14.54
2022-10-01T23:35:29.565Z,14.51
2022-10-01T23:38:32.709Z,14.50
2022-10-01T23:41:34.705Z,14.56
2022-10-01T23:45:12.721Z,14.64
2022-10-01T23:48:22.480Z,14.58
2022-10-01T23:51:31.149Z,14.49
2022-10-01T23:54:47.455Z,14.45
2022-10-01T23:57:44.543Z,14.43
